createdAt,value
2018-01-01T00:00:32.082Z,1.90
2018-01-01T00:01:32.069Z,1.80
2018-01-01T00:02:32.051Z,1.88
2018-01-01T00:03:32.038Z,1.86
2018-01-01T00:04:32.024Z,1.77
2018-01-01T00:05:32.011Z,1.76
2018-01-01T00:06:31.998Z,1.72
2018-01-01T00:07:31.980Z,1.70
2018-01-01T00:08:31.961Z,1.68
2018-01-01T00:09:31.947Z,1.58
2018-01-01T00:10:31.933Z,1.58
2018-01-01T00:11:31.920Z,1.60
2018-01-01T00:12:31.908Z,1.59
2018-01-01T00:13:31.890Z,1.41
2018-01-01T00:14:31.880Z,1.44
2018-01-01T00:15:31.862Z,1.42
2018-01-01T00:16:31.853Z,1.51
2018-01-01T00:17:31.830Z,1.50
2018-01-01T00:18:31.819Z,1.55
2018-01-01T00:19:31.801Z,1.51
2018-01-01T00:20:31.785Z,1.55
2018-01-01T00:21:31.769Z,1.62
2018-01-01T00:22:31.751Z,1.51
2018-01-01T00:23:31.740Z,1.50
2018-01-01T00:24:31.725Z,1.45
2018-01-01T00:25:31.713Z,1.41
2018-01-01T00:26:31.701Z,1.47
2018-01-01T00:27:31.684Z,1.36
2018-01-01T00:28:31.670Z,1.34
2018-01-01T00:29:31.656Z,1.23
2018-01-01T00:30:31.640Z,1.29
2018-01-01T00:31:31.634Z,1.16
2018-01-01T00:32:31.607Z,1.14
2018-01-01T00:33:31.594Z,1.15
2018-01-01T00:34:31.578Z,1.09
2018-01-01T00:35:31.569Z,1.16
2018-01-01T00:36:31.551Z,1.12
2018-01-01T00:37:31.532Z,1.20
2018-01-01T00:38:31.518Z,1.23
2018-01-01T00:39:31.505Z,1.33
2018-01-01T00:40:31.492Z,1.37
2018-01-01T00:41:31.474Z,1.37
2018-01-01T00:42:31.460Z,1.33
2018-01-01T00:43:31.443Z,1.40
2018-01-01T00:44:31.432Z,1.33
2018-01-01T00:45:31.422Z,1.18
2018-01-01T00:46:31.403Z,1.20
2018-01-01T00:47:31.394Z,1.12
2018-01-01T00:48:31.372Z,1.09
2018-01-01T00:49:31.355Z,1.11
2018-01-01T00:50:31.340Z,1.12
2018-01-01T00:51:31.323Z,1.22
2018-01-01T00:52:31.309Z,1.22
2018-01-01T00:53:31.296Z,1.14
2018-01-01T00:54:31.282Z,1.08
2018-01-01T00:55:31.269Z,1.15
2018-01-01T00:56:31.258Z,1.20
2018-01-01T00:57:31.241Z,1.20
2018-01-01T00:58:31.221Z,1.29
2018-01-01T00:59:31.207Z,1.16
2018-01-01T01:00:31.193Z,1.22
2018-01-01T01:01:31.177Z,1.36
2018-01-01T01:02:31.159Z,1.44
2018-01-01T01:03:31.148Z,1.55
2018-01-01T01:04:31.130Z,1.55
2018-01-01T01:05:31.116Z,1.70
2018-01-01T01:06:31.100Z,1.73
2018-01-01T01:07:31.083Z,1.72
2018-01-01T01:08:31.072Z,1.70
2018-01-01T01:09:31.058Z,1.60
2018-01-01T01:10:31.054Z,1.59
2018-01-01T01:11:31.028Z,1.55
2018-01-01T01:12:31.010Z,1.48
2018-01-01T01:13:30.995Z,1.41
2018-01-01T01:14:30.981Z,1.32
2018-01-01T01:15:30.970Z,1.26
2018-01-01T01:16:30.952Z,1.16
2018-01-01T01:17:30.935Z,1.12
2018-01-01T01:18:30.918Z,1.12
2018-01-01T01:19:30.905Z,1.12
2018-01-01T01:20:30.897Z,1.12
2018-01-01T01:21:30.879Z,1.12
2018-01-01T01:22:30.861Z,0.98
2018-01-01T01:23:30.846Z,1.05
2018-01-01T01:24:30.837Z,1.12
2018-01-01T01:25:30.817Z,1.08
2018-01-01T01:26:30.806Z,1.02
2018-01-01T01:27:30.786Z,1.09
2018-01-01T01:28:30.767Z,0.97
2018-01-01T01:29:30.759Z,1.11
2018-01-01T01:30:30.744Z,1.11
2018-01-01T01:31:30.721Z,1.24
2018-01-01T01:32:30.709Z,1.44
2018-01-01T01:33:30.698Z,1.54
2018-01-01T01:34:30.682Z,1.60
2018-01-01T01:35:30.667Z,1.58
2018-01-01T01:36:30.658Z,1.68
2018-01-01T01:37:30.638Z,1.55
2018-01-01T01:38:30.620Z,1.62
2018-01-01T01:39:30.604Z,1.63
2018-01-01T01:40:30.595Z,1.62
2018-01-01T01:41:30.576Z,1.60
2018-01-01T01:42:30.561Z,1.54
2018-01-01T01:43:30.545Z,1.68
2018-01-01T01:44:30.530Z,1.52
2018-01-01T01:45:30.517Z,1.66
2018-01-01T01:46:30.499Z,1.66
2018-01-01T01:47:30.487Z,1.66
2018-01-01T01:48:30.469Z,1.60
2018-01-01T01:49:30.458Z,1.70
2018-01-01T01:50:30.442Z,1.76
2018-01-01T01:51:30.434Z,1.84
2018-01-01T01:52:30.413Z,1.99
2018-01-01T01:53:30.396Z,2.07
2018-01-01T01:54:30.383Z,2.16
2018-01-01T01:55:30.371Z,2.16
2018-01-01T01:56:30.351Z,2.10
2018-01-01T01:57:30.336Z,2.07
2018-01-01T01:58:30.325Z,2.12
2018-01-01T01:59:30.310Z,2.09
2018-01-01T02:00:30.339Z,2.16
2018-01-01T02:01:30.280Z,2.12
2018-01-01T02:02:30.264Z,2.24
2018-01-01T02:03:30.251Z,2.31
2018-01-01T02:04:30.232Z,2.39
2018-01-01T02:05:30.217Z,2.39
2018-01-01T02:06:30.210Z,2.34
2018-01-01T02:07:30.191Z,2.38
2018-01-01T02:08:30.178Z,2.36
2018-01-01T02:09:30.157Z,2.35
2018-01-01T02:10:30.147Z,2.38
2018-01-01T02:11:30.132Z,2.31
2018-01-01T02:12:30.120Z,2.34
2018-01-01T02:13:30.106Z,2.36
2018-01-01T02:14:30.090Z,2.35
2018-01-01T02:15:30.078Z,2.34
2018-01-01T02:16:30.063Z,2.31
2018-01-01T02:17:30.054Z,2.34
2018-01-01T02:18:30.030Z,2.39
2018-01-01T02:19:30.014Z,2.38
2018-01-01T02:20:30.005Z,2.43
2018-01-01T02:21:29.982Z,2.42
2018-01-01T02:22:29.973Z,2.38
2018-01-01T02:23:29.959Z,2.48
2018-01-01T02:24:29.944Z,2.49
2018-01-01T02:25:29.935Z,2.43
2018-01-01T02:26:29.919Z,2.53
2018-01-01T02:27:29.904Z,2.64
2018-01-01T02:28:29.886Z,2.66
2018-01-01T02:29:29.872Z,2.71
2018-01-01T02:30:29.857Z,2.72
2018-01-01T02:31:29.843Z,2.79
2018-01-01T02:32:29.829Z,2.77
2018-01-01T02:33:29.814Z,2.78
2018-01-01T02:34:29.798Z,2.67
2018-01-01T02:35:29.785Z,2.69
2018-01-01T02:36:29.774Z,2.59
2018-01-01T02:37:29.757Z,2.69
2018-01-01T02:38:29.739Z,2.61
2018-01-01T02:39:29.725Z,2.61
2018-01-01T02:40:29.712Z,2.60
2018-01-01T02:41:29.698Z,2.64
2018-01-01T02:42:29.689Z,2.66
2018-01-01T02:43:29.667Z,2.63
2018-01-01T02:44:29.660Z,2.66
2018-01-01T02:45:29.648Z,2.52
2018-01-01T02:46:29.629Z,2.49
2018-01-01T02:47:29.610Z,2.56
2018-01-01T02:48:29.600Z,2.57
2018-01-01T02:49:29.583Z,2.53
2018-01-01T02:50:29.568Z,2.54
2018-01-01T02:51:29.552Z,2.60
2018-01-01T02:52:29.538Z,2.64
2018-01-01T02:53:29.524Z,2.66
2018-01-01T02:54:29.508Z,2.61
2018-01-01T02:55:29.497Z,2.67
2018-01-01T02:56:29.481Z,2.69
2018-01-01T02:57:29.463Z,2.64
2018-01-01T02:58:29.450Z,2.61
2018-01-01T02:59:29.438Z,2.59
2018-01-01T03:00:29.426Z,2.54
2018-01-01T03:01:29.411Z,2.69
2018-01-01T03:02:29.397Z,2.66
2018-01-01T03:03:29.381Z,2.67
2018-01-01T03:04:29.371Z,2.74
2018-01-01T03:05:29.353Z,2.69
2018-01-01T03:06:29.340Z,2.77
2018-01-01T03:07:29.324Z,2.69
2018-01-01T03:08:29.310Z,2.74
2018-01-01T03:09:29.300Z,2.78
2018-01-01T03:10:29.280Z,2.78
2018-01-01T03:11:29.265Z,2.79
2018-01-01T03:12:29.255Z,2.77
2018-01-01T03:13:29.237Z,2.78
2018-01-01T03:14:29.224Z,2.75
2018-01-01T03:15:29.210Z,2.79
2018-01-01T03:16:29.194Z,2.75
2018-01-01T03:17:29.186Z,2.77
2018-01-01T03:18:29.169Z,2.77
2018-01-01T03:19:29.153Z,2.77
2018-01-01T03:20:29.142Z,2.75
2018-01-01T03:21:29.130Z,2.79
2018-01-01T03:22:29.111Z,2.75
2018-01-01T03:23:29.097Z,2.77
2018-01-01T03:24:29.083Z,2.87
2018-01-01T03:25:29.069Z,2.79
2018-01-01T03:26:29.051Z,2.89
2018-01-01T03:27:29.042Z,2.87
2018-01-01T03:28:29.027Z,2.92
2018-01-01T03:29:29.013Z,3.06
2018-01-01T03:30:28.998Z,3.02
2018-01-01T03:31:28.982Z,3.06
2018-01-01T03:32:28.976Z,3.15
2018-01-01T03:33:28.952Z,3.18
2018-01-01T03:34:28.948Z,3.18
2018-01-01T03:35:28.930Z,3.15
2018-01-01T03:36:28.915Z,3.24
2018-01-01T03:37:28.909Z,3.17
2018-01-01T03:38:28.890Z,3.24
2018-01-01T03:39:28.878Z,3.18
2018-01-01T03:40:28.861Z,3.20
2018-01-01T03:41:28.842Z,3.20
2018-01-01T03:42:28.830Z,3.21
2018-01-01T03:43:28.817Z,2.95
2018-01-01T03:44:28.803Z,2.75
2018-01-01T03:45:28.786Z,2.59
2018-01-01T03:46:28.774Z,2.42
2018-01-01T03:47:28.763Z,2.27
2018-01-01T03:48:28.745Z,2.14
2018-01-01T03:49:28.732Z,2.07
2018-01-01T03:50:28.719Z,1.95
2018-01-01T03:51:28.703Z,1.90
2018-01-01T03:52:28.692Z,1.84
2018-01-01T03:53:28.672Z,1.87
2018-01-01T03:54:28.657Z,1.80
2018-01-01T03:55:28.645Z,1.81
2018-01-01T03:56:28.632Z,1.80
2018-01-01T03:57:28.617Z,1.80
2018-01-01T03:58:28.604Z,1.79
2018-01-01T03:59:28.586Z,1.72
2018-01-01T04:00:28.574Z,1.79
2018-01-01T04:01:28.562Z,1.73
2018-01-01T04:02:28.549Z,1.68
2018-01-01T04:03:28.535Z,1.69
2018-01-01T04:04:28.517Z,1.72
2018-01-01T04:05:28.502Z,1.80
2018-01-01T04:06:28.487Z,1.83
2018-01-01T04:07:28.475Z,1.84
2018-01-01T04:08:28.453Z,1.80
2018-01-01T04:09:28.442Z,1.86
2018-01-01T04:10:28.429Z,1.77
2018-01-01T04:11:28.415Z,1.93
2018-01-01T04:12:28.402Z,1.99
2018-01-01T04:13:28.387Z,2.02
2018-01-01T04:14:28.370Z,2.05
2018-01-01T04:15:28.356Z,2.06
2018-01-01T04:16:28.345Z,2.20
2018-01-01T04:17:28.330Z,2.24
2018-01-01T04:18:28.316Z,2.25
2018-01-01T04:19:28.298Z,2.30
2018-01-01T04:20:28.286Z,2.35
2018-01-01T04:21:28.270Z,2.34
2018-01-01T04:22:28.256Z,2.31
2018-01-01T04:23:28.241Z,2.39
2018-01-01T04:24:28.228Z,2.49
2018-01-01T04:25:28.213Z,2.52
2018-01-01T04:26:28.196Z,2.49
2018-01-01T04:27:28.190Z,2.59
2018-01-01T04:28:28.167Z,2.63
2018-01-01T04:29:28.154Z,2.77
2018-01-01T04:30:28.140Z,2.67
2018-01-01T04:31:28.139Z,2.77
2018-01-01T04:32:28.112Z,2.87
2018-01-01T04:33:28.095Z,2.85
2018-01-01T04:34:28.078Z,2.82
2018-01-01T04:35:28.066Z,2.85
2018-01-01T04:36:28.060Z,2.87
2018-01-01T04:37:28.042Z,2.87
2018-01-01T04:38:28.022Z,2.92
2018-01-01T04:39:28.011Z,2.90
2018-01-01T04:40:27.995Z,2.81
2018-01-01T04:41:27.983Z,2.82
2018-01-01T04:42:27.968Z,2.82
2018-01-01T04:43:27.952Z,2.84
2018-01-01T04:44:27.943Z,2.78
2018-01-01T04:45:27.922Z,2.81
2018-01-01T04:46:27.905Z,2.67
2018-01-01T04:47:27.893Z,2.75
2018-01-01T04:48:27.880Z,2.77
2018-01-01T04:49:27.866Z,2.63
2018-01-01T04:50:27.851Z,2.75
2018-01-01T04:51:27.837Z,2.60
2018-01-01T04:52:27.824Z,2.61
2018-01-01T04:53:27.806Z,2.71
2018-01-01T04:54:27.800Z,2.59
2018-01-01T04:55:27.784Z,2.63
2018-01-01T04:56:27.768Z,2.56
2018-01-01T04:57:27.755Z,2.48
2018-01-01T04:58:27.737Z,2.43
2018-01-01T04:59:27.724Z,2.42
2018-01-01T05:00:27.708Z,2.35
2018-01-01T05:01:27.693Z,2.31
2018-01-01T05:02:27.676Z,2.18
2018-01-01T05:03:27.667Z,2.17
2018-01-01T05:04:27.651Z,2.00
2018-01-01T05:05:27.636Z,2.05
2018-01-01T05:06:27.622Z,1.91
2018-01-01T05:07:27.607Z,1.91
2018-01-01T05:08:27.594Z,1.84
2018-01-01T05:09:27.576Z,1.80
2018-01-01T05:10:27.561Z,1.88
2018-01-01T05:11:27.548Z,1.76
2018-01-01T05:12:27.528Z,1.81
2018-01-01T05:13:27.517Z,1.70
2018-01-01T05:14:27.503Z,1.65
2018-01-01T05:15:27.485Z,1.66
2018-01-01T05:16:27.474Z,1.63
2018-01-01T05:17:27.462Z,1.58
2018-01-01T05:18:27.447Z,1.60
2018-01-01T05:19:27.430Z,1.60
2018-01-01T05:20:27.416Z,1.51
2018-01-01T05:21:27.411Z,1.58
2018-01-01T05:22:27.386Z,1.50
2018-01-01T05:23:27.372Z,1.42
2018-01-01T05:24:27.360Z,1.47
2018-01-01T05:25:27.340Z,1.36
2018-01-01T05:26:27.327Z,1.40
2018-01-01T05:27:27.309Z,1.47
2018-01-01T05:28:27.301Z,1.30
2018-01-01T05:29:27.280Z,1.34
2018-01-01T05:30:27.271Z,1.33
2018-01-01T05:31:27.251Z,1.40
2018-01-01T05:32:27.237Z,1.36
2018-01-01T05:33:27.222Z,1.30
2018-01-01T05:34:27.211Z,1.37
2018-01-01T05:35:27.193Z,1.29
2018-01-01T05:36:27.176Z,1.40
2018-01-01T05:37:27.163Z,1.27
2018-01-01T05:38:27.152Z,1.26
2018-01-01T05:39:27.159Z,1.34
2018-01-01T05:40:27.115Z,1.32
2018-01-01T05:41:27.102Z,1.37
2018-01-01T05:42:27.088Z,1.24
2018-01-01T05:43:27.073Z,1.33
2018-01-01T05:44:27.062Z,1.30
2018-01-01T05:45:27.042Z,1.32
2018-01-01T05:46:27.026Z,1.32
2018-01-01T05:47:27.014Z,1.27
2018-01-01T05:48:27.001Z,1.33
2018-01-01T05:49:26.982Z,1.34
2018-01-01T05:50:26.966Z,1.30
2018-01-01T05:51:26.949Z,1.24
2018-01-01T05:52:26.936Z,1.32
2018-01-01T05:53:26.924Z,1.22
2018-01-01T05:54:26.908Z,1.22
2018-01-01T05:55:26.891Z,1.23
2018-01-01T05:56:26.876Z,1.26
2018-01-01T05:57:26.861Z,1.27
2018-01-01T05:58:26.849Z,1.26
2018-01-01T05:59:26.832Z,1.26
2018-01-01T06:00:26.816Z,1.23
2018-01-01T06:01:26.805Z,1.22
2018-01-01T06:02:26.791Z,1.29
2018-01-01T06:03:26.769Z,1.24
2018-01-01T06:04:26.758Z,1.26
2018-01-01T06:05:26.741Z,1.22
2018-01-01T06:06:26.726Z,1.14
2018-01-01T06:07:26.708Z,1.22
2018-01-01T06:08:26.697Z,1.20
2018-01-01T06:09:26.683Z,1.11
2018-01-01T06:10:26.667Z,1.18
2018-01-01T06:11:26.651Z,1.18
2018-01-01T06:12:26.636Z,1.30
2018-01-01T06:13:26.623Z,1.26
2018-01-01T06:14:26.601Z,1.24
2018-01-01T06:15:26.600Z,1.22
2018-01-01T06:16:26.572Z,1.23
2018-01-01T06:17:26.559Z,1.18
2018-01-01T06:18:26.552Z,1.16
2018-01-01T06:19:26.528Z,1.14
2018-01-01T06:20:26.514Z,1.09
2018-01-01T06:21:26.499Z,0.98
2018-01-01T06:22:26.485Z,1.08
2018-01-01T06:23:26.468Z,1.06
2018-01-01T06:24:26.451Z,1.08
2018-01-01T06:25:26.443Z,1.04
2018-01-01T06:26:26.427Z,1.05
2018-01-01T06:27:26.410Z,0.98
2018-01-01T06:28:26.403Z,0.96
2018-01-01T06:29:26.378Z,0.93
2018-01-01T06:30:26.358Z,1.00
2018-01-01T06:31:26.345Z,0.94
2018-01-01T06:32:26.331Z,0.96
2018-01-01T06:33:26.347Z,0.96
2018-01-01T06:34:26.307Z,1.04
2018-01-01T06:35:26.285Z,1.02
2018-01-01T06:36:26.274Z,1.05
2018-01-01T06:37:26.256Z,1.05
2018-01-01T06:38:26.243Z,1.06
2018-01-01T06:39:26.227Z,1.09
2018-01-01T06:40:26.211Z,1.08
2018-01-01T06:41:26.195Z,1.09
2018-01-01T06:42:26.179Z,1.06
2018-01-01T06:43:26.162Z,1.11
2018-01-01T06:44:26.146Z,1.15
2018-01-01T06:45:26.133Z,1.18
2018-01-01T06:46:26.122Z,1.08
2018-01-01T06:47:26.105Z,1.14
2018-01-01T06:48:26.091Z,1.14
2018-01-01T06:49:26.077Z,1.14
2018-01-01T06:50:26.056Z,1.27
2018-01-01T06:51:26.042Z,1.27
2018-01-01T06:52:26.029Z,1.16
2018-01-01T06:53:26.014Z,1.26
2018-01-01T06:54:25.993Z,1.30
2018-01-01T06:55:25.983Z,1.26
2018-01-01T06:56:25.976Z,1.23
2018-01-01T06:57:25.952Z,1.24
2018-01-01T06:58:25.937Z,1.29
2018-01-01T06:59:25.923Z,1.33
2018-01-01T07:00:25.907Z,1.26
2018-01-01T07:01:25.896Z,1.36
2018-01-01T07:02:25.877Z,1.40
2018-01-01T07:03:25.863Z,1.34
2018-01-01T07:04:25.849Z,1.41
2018-01-01T07:05:25.832Z,1.37
2018-01-01T07:06:25.819Z,1.34
2018-01-01T07:07:25.805Z,1.42
2018-01-01T07:08:25.788Z,1.20
2018-01-01T07:09:25.777Z,1.20
2018-01-01T07:10:25.763Z,1.26
2018-01-01T07:11:25.743Z,1.15
2018-01-01T07:12:25.731Z,1.11
2018-01-01T07:13:25.716Z,1.22
2018-01-01T07:14:25.700Z,1.11
2018-01-01T07:15:25.687Z,1.00
2018-01-01T07:16:25.672Z,1.04
2018-01-01T07:17:25.655Z,1.05
2018-01-01T07:18:25.641Z,0.98
2018-01-01T07:19:25.625Z,1.06
2018-01-01T07:20:25.608Z,1.12
2018-01-01T07:21:25.593Z,1.04
2018-01-01T07:22:25.575Z,1.05
2018-01-01T07:23:25.567Z,1.11
2018-01-01T07:24:25.557Z,1.06
2018-01-01T07:25:25.537Z,1.08
2018-01-01T07:26:25.518Z,1.04
2018-01-01T07:27:25.509Z,1.09
2018-01-01T07:28:25.490Z,1.08
2018-01-01T07:29:25.475Z,1.05
2018-01-01T07:30:25.465Z,1.15
2018-01-01T07:31:25.445Z,1.08
2018-01-01T07:32:25.429Z,1.08
2018-01-01T07:33:25.416Z,1.15
2018-01-01T07:34:25.400Z,1.20
2018-01-01T07:35:25.377Z,1.18
2018-01-01T07:36:25.367Z,1.11
2018-01-01T07:37:25.356Z,1.15
2018-01-01T07:38:25.339Z,1.09
2018-01-01T07:39:25.324Z,1.05
2018-01-01T07:40:25.308Z,1.00
2018-01-01T07:41:25.295Z,1.00
2018-01-01T07:42:25.276Z,1.02
2018-01-01T07:43:25.270Z,1.11
2018-01-01T07:44:25.249Z,1.11
2018-01-01T07:45:25.235Z,1.06
2018-01-01T07:46:25.222Z,1.15
2018-01-01T07:47:25.203Z,1.04
2018-01-01T07:48:25.185Z,1.02
2018-01-01T07:49:25.173Z,1.02
2018-01-01T07:50:25.155Z,1.08
2018-01-01T07:51:25.146Z,1.09
2018-01-01T07:52:25.128Z,1.04
2018-01-01T07:53:25.118Z,1.12
2018-01-01T07:54:25.097Z,1.12
2018-01-01T07:55:25.094Z,1.12
2018-01-01T07:56:25.064Z,1.02
2018-01-01T07:57:25.057Z,1.06
2018-01-01T07:58:25.035Z,1.18
2018-01-01T07:59:25.021Z,1.08
2018-01-01T08:00:25.008Z,1.16
2018-01-01T08:01:24.993Z,1.04
2018-01-01T08:02:24.977Z,1.12
2018-01-01T08:03:24.966Z,1.05
2018-01-01T08:04:24.949Z,1.04
2018-01-01T08:05:24.930Z,1.11
2018-01-01T08:06:24.915Z,1.02
2018-01-01T08:07:24.907Z,1.08
2018-01-01T08:08:24.887Z,1.11
2018-01-01T08:09:24.872Z,1.08
2018-01-01T08:10:24.857Z,1.14
2018-01-01T08:11:24.843Z,1.11
2018-01-01T08:12:24.827Z,1.09
2018-01-01T08:13:24.816Z,1.11
2018-01-01T08:14:24.795Z,1.11
2018-01-01T08:15:24.783Z,1.11
2018-01-01T08:16:24.768Z,1.22
2018-01-01T08:17:24.753Z,1.24
2018-01-01T08:18:24.739Z,1.18
2018-01-01T08:19:24.723Z,1.22
2018-01-01T08:20:24.718Z,1.16
2018-01-01T08:21:24.693Z,1.24
2018-01-01T08:22:24.680Z,1.23
2018-01-01T08:23:24.670Z,1.34
2018-01-01T08:24:24.646Z,1.29
2018-01-01T08:25:24.633Z,1.34
2018-01-01T08:26:24.609Z,1.27
2018-01-01T08:27:24.600Z,1.34
2018-01-01T08:28:24.584Z,1.40
2018-01-01T08:29:24.573Z,1.34
2018-01-01T08:30:24.558Z,1.37
2018-01-01T08:31:24.541Z,1.41
2018-01-01T08:32:24.529Z,1.42
2018-01-01T08:33:24.517Z,1.41
2018-01-01T08:34:24.506Z,1.51
2018-01-01T08:35:24.484Z,1.44
2018-01-01T08:36:24.473Z,1.50
2018-01-01T08:37:24.450Z,1.55
2018-01-01T08:38:24.436Z,1.60
2018-01-01T08:39:24.421Z,1.59
2018-01-01T08:40:24.409Z,1.76
2018-01-01T08:41:24.389Z,1.70
2018-01-01T08:42:24.376Z,1.84
2018-01-01T08:43:24.365Z,1.84
2018-01-01T08:44:24.345Z,1.87
2018-01-01T08:45:24.331Z,1.86
2018-01-01T08:46:24.321Z,1.95
2018-01-01T08:47:24.303Z,2.02
2018-01-01T08:48:24.291Z,1.99
2018-01-01T08:49:24.278Z,2.09
2018-01-01T08:50:24.259Z,2.16
2018-01-01T08:51:24.242Z,2.25
2018-01-01T08:52:24.273Z,2.24
2018-01-01T08:53:24.218Z,2.31
2018-01-01T08:54:24.204Z,2.36
2018-01-01T08:55:24.188Z,2.36
2018-01-01T08:56:24.173Z,2.39
2018-01-01T08:57:24.159Z,2.48
2018-01-01T08:58:24.147Z,2.52
2018-01-01T08:59:24.134Z,2.52
2018-01-01T09:00:24.115Z,2.56
2018-01-01T09:01:24.101Z,2.60
2018-01-01T09:02:24.086Z,2.66
2018-01-01T09:03:24.072Z,2.64
2018-01-01T09:04:24.058Z,2.64
2018-01-01T09:05:24.045Z,2.81
2018-01-01T09:06:24.034Z,2.69
2018-01-01T09:07:24.012Z,2.74
2018-01-01T09:08:24.005Z,2.69
2018-01-01T09:09:23.986Z,2.82
2018-01-01T09:10:23.979Z,2.81
2018-01-01T09:11:23.963Z,2.82
2018-01-01T09:12:23.947Z,2.81
2018-01-01T09:13:23.930Z,2.84
2018-01-01T09:14:23.915Z,2.89
2018-01-01T09:15:23.901Z,2.97
2018-01-01T09:16:23.887Z,2.92
2018-01-01T09:17:23.874Z,2.92
2018-01-01T09:18:23.859Z,2.95
2018-01-01T09:19:23.850Z,2.90
2018-01-01T09:20:23.832Z,2.84
2018-01-01T09:21:23.819Z,2.90
2018-01-01T09:22:23.809Z,2.82
2018-01-01T09:23:23.790Z,2.85
2018-01-01T09:24:23.774Z,2.85
2018-01-01T09:25:23.760Z,2.93
2018-01-01T09:28:15.483Z,3.97
2018-01-01T09:29:15.431Z,4.22
2018-01-01T09:31:09.988Z,4.45
2018-01-01T09:32:09.957Z,4.51
2018-01-01T09:34:05.818Z,4.66
2018-01-01T09:35:05.793Z,4.72
2018-01-01T09:37:00.108Z,4.66
2018-01-01T09:38:00.051Z,4.72
2018-01-01T09:39:54.909Z,4.69
2018-01-01T09:40:54.879Z,4.72
2018-01-01T09:41:54.863Z,4.73
2018-01-01T09:42:54.853Z,4.70
2018-01-01T09:43:54.873Z,4.70
2018-01-01T09:44:54.826Z,4.72
2018-01-01T09:45:54.813Z,4.73
2018-01-01T09:46:54.800Z,4.73
2018-01-01T09:47:54.788Z,4.73
2018-01-01T09:48:54.772Z,4.77
2018-01-01T09:49:54.758Z,4.69
2018-01-01T09:50:54.744Z,4.67
2018-01-01T09:51:54.731Z,4.65
2018-01-01T09:52:54.717Z,4.63
2018-01-01T09:53:54.708Z,4.67
2018-01-01T09:54:54.693Z,4.69
2018-01-01T09:55:54.681Z,4.70
2018-01-01T09:56:54.673Z,4.58
2018-01-01T09:57:54.651Z,4.54
2018-01-01T09:58:54.639Z,4.54
2018-01-01T09:59:54.626Z,4.47
2018-01-01T10:00:54.616Z,4.44
2018-01-01T10:01:54.606Z,4.45
2018-01-01T10:02:54.589Z,4.44
2018-01-01T10:03:54.575Z,4.42
2018-01-01T10:04:54.565Z,4.45
2018-01-01T10:05:54.552Z,4.44
2018-01-01T10:06:54.537Z,4.50
2018-01-01T10:07:54.524Z,4.59
2018-01-01T10:08:54.510Z,4.59
2018-01-01T10:09:54.498Z,4.55
2018-01-01T10:10:54.489Z,4.60
2018-01-01T10:11:54.474Z,4.73
2018-01-01T10:12:54.458Z,4.66
2018-01-01T10:13:54.447Z,4.70
2018-01-01T10:14:54.438Z,4.66
2018-01-01T10:15:54.417Z,4.78
2018-01-01T10:16:54.413Z,4.72
2018-01-01T10:17:54.398Z,4.80
2018-01-01T10:18:54.383Z,4.78
2018-01-01T10:19:54.368Z,4.75
2018-01-01T10:20:54.360Z,4.78
2018-01-01T10:21:54.344Z,4.86
2018-01-01T10:22:54.332Z,4.80
2018-01-01T10:23:54.969Z,4.85
2018-01-01T10:24:54.309Z,4.86
2018-01-01T10:25:54.298Z,4.89
2018-01-01T10:26:54.283Z,4.88
2018-01-01T10:27:54.269Z,4.91
2018-01-01T10:28:54.262Z,4.91
2018-01-01T10:29:54.245Z,4.96
2018-01-01T10:30:54.238Z,4.97
2018-01-01T10:31:54.222Z,4.97
2018-01-01T10:32:54.205Z,5.07
2018-01-01T10:33:54.192Z,5.20
2018-01-01T10:34:54.183Z,5.20
2018-01-01T10:35:54.168Z,5.21
2018-01-01T10:36:54.156Z,5.15
2018-01-01T10:37:54.147Z,5.24
2018-01-01T10:38:54.134Z,5.27
2018-01-01T10:39:54.122Z,5.33
2018-01-01T10:40:54.120Z,5.35
2018-01-01T10:41:54.098Z,5.28
2018-01-01T10:42:54.086Z,5.38
2018-01-01T10:43:54.070Z,5.39
2018-01-01T10:44:54.059Z,5.46
2018-01-01T10:45:54.047Z,5.40
2018-01-01T10:46:54.037Z,5.58
2018-01-01T10:47:54.021Z,5.61
2018-01-01T10:48:54.012Z,5.57
2018-01-01T10:49:54.006Z,5.53
2018-01-01T10:50:53.984Z,5.53
2018-01-01T10:51:53.975Z,5.53
2018-01-01T10:52:53.962Z,5.57
2018-01-01T10:53:53.950Z,5.60
2018-01-01T10:54:53.941Z,5.61
2018-01-01T10:55:53.921Z,5.64
2018-01-01T10:56:53.914Z,5.48
2018-01-01T10:57:53.900Z,5.48
2018-01-01T10:58:53.890Z,5.49
2018-01-01T10:59:53.872Z,5.45
2018-01-01T11:00:53.864Z,5.46
2018-01-01T11:01:53.856Z,5.57
2018-01-01T11:02:53.841Z,5.46
2018-01-01T11:03:53.831Z,5.56
2018-01-01T11:04:53.818Z,5.65
2018-01-01T11:05:53.806Z,5.53
2018-01-01T11:06:53.794Z,6.09
2018-01-01T11:07:53.783Z,6.01
2018-01-01T11:08:53.772Z,6.14
2018-01-01T11:09:53.756Z,6.01
2018-01-01T11:10:53.741Z,6.11
2018-01-01T11:11:53.732Z,6.11
2018-01-01T11:12:53.722Z,6.04
2018-01-01T11:13:53.706Z,6.03
2018-01-01T11:14:53.700Z,5.96
2018-01-01T11:15:53.681Z,5.94
2018-01-01T11:16:53.668Z,5.96
2018-01-01T11:17:53.661Z,5.79
2018-01-01T11:18:53.656Z,5.74
2018-01-01T11:19:53.634Z,5.54
2018-01-01T11:20:53.625Z,5.28
2018-01-01T11:21:53.616Z,5.25
2018-01-01T11:22:53.603Z,5.07
2018-01-01T11:23:53.592Z,4.92
2018-01-01T11:24:53.576Z,4.86
2018-01-01T11:25:53.561Z,4.67
2018-01-01T11:26:53.559Z,4.67
2018-01-01T11:27:53.540Z,4.51
2018-01-01T11:28:53.527Z,4.54
2018-01-01T11:29:53.525Z,4.59
2018-01-01T11:30:53.509Z,4.65
2018-01-01T11:31:53.492Z,4.69
2018-01-01T11:32:53.485Z,4.69
2018-01-01T11:33:53.470Z,4.88
2018-01-01T11:34:53.459Z,4.91
2018-01-01T11:35:53.445Z,4.89
2018-01-01T11:36:53.431Z,4.94
2018-01-01T11:37:53.419Z,4.97
2018-01-01T11:38:53.410Z,4.92
2018-01-01T11:39:53.394Z,4.92
2018-01-01T11:40:53.385Z,4.86
2018-01-01T11:41:53.375Z,4.94
2018-01-01T11:42:53.361Z,4.94
2018-01-01T11:43:53.343Z,5.06
2018-01-01T11:44:53.335Z,5.09
2018-01-01T11:45:53.322Z,5.22
2018-01-01T11:46:53.311Z,5.24
2018-01-01T11:47:53.299Z,5.25
2018-01-01T11:48:53.290Z,5.30
2018-01-01T11:49:53.283Z,5.56
2018-01-01T11:50:53.271Z,5.74
2018-01-01T11:51:53.250Z,5.86
2018-01-01T11:52:53.240Z,6.00
2018-01-01T11:53:53.228Z,6.12
2018-01-01T11:54:53.215Z,6.31
2018-01-01T11:55:53.244Z,6.55
2018-01-01T11:56:53.189Z,6.95
2018-01-01T11:57:53.177Z,7.30
2018-01-01T11:58:53.164Z,7.79
2018-01-01T11:59:53.160Z,8.08
2018-01-01T12:00:53.143Z,8.40
2018-01-01T12:01:53.139Z,8.71
2018-01-01T12:02:53.117Z,8.96
2018-01-01T12:03:53.111Z,9.18
2018-01-01T12:04:53.096Z,9.39
2018-01-01T12:05:53.088Z,9.56
2018-01-01T12:06:53.076Z,9.76
2018-01-01T12:07:53.064Z,9.93
2018-01-01T12:08:53.052Z,10.02
2018-01-01T12:09:53.041Z,10.15
2018-01-01T12:10:53.033Z,10.20
2018-01-01T12:11:53.023Z,10.20
2018-01-01T12:12:53.009Z,10.15
2018-01-01T12:13:53.002Z,10.02
2018-01-01T12:14:52.991Z,10.12
2018-01-01T12:15:52.978Z,10.08
2018-01-01T12:16:52.971Z,10.29
2018-01-01T12:17:52.955Z,10.60
2018-01-01T12:18:52.951Z,10.70
2018-01-01T12:19:52.940Z,10.82
2018-01-01T12:20:52.931Z,10.88
2018-01-01T12:21:52.918Z,11.09
2018-01-01T12:22:52.912Z,11.25
2018-01-01T12:23:52.897Z,11.37
2018-01-01T12:24:52.888Z,11.52
2018-01-01T12:25:52.924Z,11.51
2018-01-01T12:26:52.870Z,11.39
2018-01-01T12:27:52.860Z,11.47
2018-01-01T12:28:52.849Z,11.44
2018-01-01T12:29:52.844Z,11.46
2018-01-01T12:30:52.831Z,11.49
2018-01-01T12:31:52.820Z,11.52
2018-01-01T12:32:52.812Z,11.55
2018-01-01T12:33:52.806Z,11.57
2018-01-01T12:34:52.796Z,11.54
2018-01-01T12:35:52.780Z,10.94
2018-01-01T12:36:52.777Z,10.29
2018-01-01T12:37:52.768Z,9.83
2018-01-01T12:38:52.760Z,9.89
2018-01-01T12:39:52.749Z,9.46
2018-01-01T12:40:52.739Z,9.24
2018-01-01T12:41:52.730Z,9.28
2018-01-01T12:42:52.722Z,9.57
2018-01-01T12:43:52.717Z,9.75
2018-01-01T12:44:52.705Z,9.91
2018-01-01T12:45:52.693Z,10.09
2018-01-01T12:46:52.684Z,10.20
2018-01-01T12:47:52.685Z,10.02
2018-01-01T12:48:52.664Z,9.26
2018-01-01T12:49:52.654Z,8.70
2018-01-01T12:50:52.649Z,8.26
2018-01-01T12:51:52.637Z,8.37
2018-01-01T12:52:52.628Z,8.53
2018-01-01T12:53:52.623Z,8.53
2018-01-01T12:54:52.608Z,8.26
2018-01-01T12:55:52.604Z,8.25
2018-01-01T12:56:52.597Z,8.18
2018-01-01T12:57:52.582Z,7.97
2018-01-01T12:58:52.575Z,8.05
2018-01-01T12:59:52.565Z,8.12
2018-01-01T13:00:52.553Z,8.40
2018-01-01T13:01:52.546Z,8.41
2018-01-01T13:02:52.541Z,8.45
2018-01-01T13:03:52.528Z,8.48
2018-01-01T13:04:52.516Z,8.59
2018-01-01T13:05:52.508Z,8.73
2018-01-01T13:06:52.496Z,8.80
2018-01-01T13:07:52.492Z,8.98
2018-01-01T13:08:52.485Z,9.20
2018-01-01T13:09:52.468Z,9.46
2018-01-01T13:10:52.465Z,9.50
2018-01-01T13:11:52.453Z,9.66
2018-01-01T13:12:52.446Z,9.76
2018-01-01T13:13:52.432Z,9.61
2018-01-01T13:14:52.424Z,9.08
2018-01-01T13:15:52.415Z,8.76
2018-01-01T13:16:52.403Z,8.52
2018-01-01T13:17:52.947Z,8.41
2018-01-01T13:18:52.383Z,7.79
2018-01-01T13:19:52.370Z,7.27
2018-01-01T13:20:52.367Z,6.97
2018-01-01T13:21:52.353Z,6.52
2018-01-01T13:22:52.345Z,6.01